Archival Weather

Phoenix Deer Valley

Phoenix, Arizona (KDVT)

Report from: Monday, August 15, 2022 11:53 PM MST
Current time: Friday, April 19, 2024 1:15 AM MST

Current weather – Weather history – Daily summaries
Weather forecast

Temperature31.7°C (89.1°F)
Heat index32.5°C (90.5°F)
Dew point17.8°C (64.0°F)
Winds Calm
Visibility10 mi. (16.1 km)
Clouds Sky clear
Altimeter29.82 in.Hg (1010 mB)
Relative humidity44 %
Density altitude2,403 ft. (732 m)
Sea-level pressure100.7 kPa (1007 mB, 29.73 in.Hg)
Max temp last 24 hours37.2°C (99.0°F)
Min temp last 24 hours25.0°C (77.0°F)
Remarks Fully automated report
Automated weather observing station with precipitation discriminator
Flight conditions Visual Meteorological Conditions
Raw dataKDVT 160653Z AUTO 00000KT 10SM CLR 32/18 A2982 RMK AO2 SLP068 T03170178 403720250
An error has occurred. This application may no longer respond until reloaded. Reload 🗙